Time;durP1;ratioP1;P1;durP2;ratioP2;P2;SDS_P1;SDS_P2;PMS_P1;PMS_P2;Temp;Humidity;BMP_temperature;BMP_pressure;BME280_temperature;BME280_humidity;BME280_pressure;Samples;Min_cycle;Max_cycle;Signal;HPM_P1;HPM_P2
2021/08/08 00:17:47;;;;;;;;;;;;;;;;;;;;;
2021/08/08 02:43:06;;;;;;;2.58;1.40;;;17.30;99.20;;;;;;6193178;23;20043;-89
2021/08/08 02:46:33;;;;;;;1.88;1.27;;;17.30;99.20;;;;;;6167074;23;20051;-90
2021/08/08 02:59:41;;;;;;;2.15;1.30;;;17.30;99.10;;;;;;6048172;23;20383;-89
2021/08/08 03:19:44;;;;;;;1.98;1.20;;;17.40;98.60;;;;;;6045000;23;20014;-89
2021/08/08 04:06:21;;;;;;;4.20;1.10;;;17.40;98.30;;;;;;5897189;24;20017;-90
2021/08/08 04:09:33;;;;;;;3.58;1.02;;;17.40;98.30;;;;;;5878681;24;20041;-90
2021/08/08 04:19:33;;;;;;;2.20;1.15;;;17.40;98.30;;;;;;5973026;24;20400;-90
2021/08/08 04:22:38;;;;;;;3.97;1.13;;;17.40;98.30;;;;;;5963711;24;20015;-90
2021/08/08 04:28:55;;;;;;;3.45;1.08;;;17.30;98.40;;;;;;5931370;24;20077;-89
2021/08/08 04:35:21;;;;;;;4.35;1.10;;;17.40;98.30;;;;;;5822117;24;20014;-89
2021/08/08 04:45:06;;;;;;;2.60;1.00;;;17.40;98.10;;;;;;5797040;24;20114;-89
2021/08/08 04:48:04;;;;;;;7.00;1.33;;;17.50;98.00;;;;;;5822644;24;20019;-90
2021/08/08 04:54:10;;;;;;;1.98;1.05;;;17.50;98.10;;;;;;5850297;24;20093;-89
2021/08/08 04:57:19;;;;;;;2.65;0.88;;;17.50;98.00;;;;;;5923348;24;20022;-90
2021/08/08 05:00:40;;;;;;;3.60;0.98;;;17.60;97.80;;;;;;6028407;23;20007;-90
2021/08/08 05:10:24;;;;;;;;;;;;;;;;;;;;;
2021/08/08 05:13:34;;;;;;;5.03;1.15;;;17.70;97.70;;;;;;6107023;23;20041;-88
2021/08/08 05:16:33;;;;;;;1.65;0.70;;;17.70;97.60;;;;;;6121722;23;20021;-88
2021/08/08 05:19:36;;;;;;;2.78;1.02;;;17.80;97.60;;;;;;6118730;23;20005;-90
2021/08/08 05:22:32;;;;;;;2.70;1.05;;;17.90;97.50;;;;;;6137077;23;20009;-89
2021/08/08 05:25:47;;;;;;;2.40;0.70;;;17.90;97.50;;;;;;6135973;23;20009;-91
2021/08/08 05:29:08;;;;;;;2.88;1.00;;;17.90;97.40;;;;;;6136180;23;20002;-89
2021/08/08 05:31:38;;;;;;;1.95;0.82;;;18.00;97.30;;;;;;6105940;23;20007;-88
2021/08/08 05:38:07;;;;;;;2.25;0.77;;;18.10;97.10;;;;;;6150573;23;20006;-89
2021/08/08 05:48:45;;;;;;;1.38;0.60;;;18.30;96.60;;;;;;6022490;23;20024;-89
2021/08/08 05:52:25;;;;;;;1.65;0.70;;;18.40;96.50;;;;;;5990717;23;20027;-89
2021/08/08 05:55:46;;;;;;;;;;;;;;;;;;;;;
2021/08/08 05:58:27;;;;;;;4.00;0.80;;;18.40;96.20;;;;;;6099966;23;20041;-89
2021/08/08 06:01:12;;;;;;;3.75;0.80;;;18.50;96.30;;;;;;6075937;23;20010;-89
2021/08/08 06:03:58;;;;;;;0.90;0.73;;;18.60;96.20;;;;;;6073048;23;20011;-90
2021/08/08 06:06:42;;;;;;;3.15;0.65;;;18.60;95.90;;;;;;6089199;23;20002;-89
2021/08/08 06:09:27;;;;;;;;;;;;;;;;;;;;;
2021/08/08 06:11:58;;;;;;;9.13;0.60;;;18.70;95.70;;;;;;6140608;23;20048;-89
2021/08/08 06:14:29;;;;;;;2.22;0.57;;;18.90;95.10;;;;;;6137656;23;20009;-91
2021/08/08 06:16:57;;;;;;;0.60;0.50;;;18.90;95.30;;;;;;6137301;23;20009;-89
2021/08/08 06:19:30;;;;;;;2.00;0.63;;;18.90;95.40;;;;;;6137360;23;20085;-90
2021/08/08 06:21:55;;;;;;;2.05;0.65;;;18.90;95.40;;;;;;6137820;23;20009;-87
2021/08/08 06:24:30;;;;;;;1.52;0.63;;;19.00;95.30;;;;;;6138631;23;20076;-90
2021/08/08 06:33:43;;;;;;;2.95;1.25;;;19.20;94.90;;;;;;6148666;23;20013;-90
2021/08/08 06:36:18;;;;;;;5.65;1.27;;;19.20;95.00;;;;;;6123727;23;20009;-89
2021/08/08 06:39:03;;;;;;;0.98;0.70;;;19.30;94.80;;;;;;6162977;23;20006;-90
2021/08/08 06:41:39;;;;;;;0.82;0.43;;;19.40;94.80;;;;;;6140607;23;20009;-90
2021/08/08 06:44:14;;;;;;;1.63;0.40;;;19.40;94.20;;;;;;6152012;23;20012;-88
2021/08/08 06:47:01;;;;;;;0.70;0.60;;;19.50;94.30;;;;;;6170058;23;20068;-91
2021/08/08 06:49:44;;;;;;;0.63;0.47;;;19.50;94.30;;;;;;6136887;23;20048;-89
2021/08/08 06:52:24;;;;;;;2.47;0.60;;;19.60;93.70;;;;;;6137072;23;20033;-89
2021/08/08 06:57:46;;;;;;;1.65;0.77;;;19.70;93.80;;;;;;6161828;23;20064;-88
2021/08/08 07:00:27;;;;;;;1.10;0.73;;;19.80;93.80;;;;;;6137718;23;20002;-89
2021/08/08 07:03:14;;;;;;;3.13;0.70;;;19.90;93.70;;;;;;6120335;23;20024;-89
2021/08/08 07:06:03;;;;;;;2.25;0.52;;;19.90;93.30;;;;;;6136892;23;20002;-90
2021/08/08 07:08:30;;;;;;;1.00;0.60;;;20.00;92.90;;;;;;6114764;23;20061;-88
2021/08/08 07:11:12;;;;;;;4.90;0.52;;;20.00;92.40;;;;;;6136994;23;20080;-88
2021/08/08 07:16:46;;;;;;;0.43;0.38;;;20.20;91.90;;;;;;6167199;23;20024;-88
2021/08/08 07:19:14;;;;;;;2.43;0.97;;;20.30;91.30;;;;;;6144531;23;20006;-89
2021/08/08 07:21:45;;;;;;;2.42;0.50;;;20.40;90.80;;;;;;6136290;23;20009;-89
2021/08/08 07:24:13;;;;;;;0.50;0.40;;;20.40;90.40;;;;;;6136352;23;20009;-89
2021/08/08 07:26:39;;;;;;;1.42;0.60;;;20.50;90.30;;;;;;6136304;23;20001;-89
2021/08/08 07:29:16;;;;;;;1.80;0.40;;;20.60;88.00;;;;;;6136401;23;20319;-91
2021/08/08 07:31:42;;;;;;;0.77;0.70;;;20.60;87.40;;;;;;6136662;23;20009;-88
2021/08/08 07:34:15;;;;;;;0.65;0.50;;;20.70;87.40;;;;;;6136671;23;20480;-90
2021/08/08 07:36:52;;;;;;;0.50;0.30;;;20.80;87.90;;;;;;6136006;23;20006;-88
2021/08/08 07:39:20;;;;;;;0.75;0.40;;;20.90;87.20;;;;;;6135903;23;20005;-87
2021/08/08 07:42:08;;;;;;;1.58;0.60;;;21.00;86.60;;;;;;6141677;23;20009;-90
2021/08/08 07:44:33;;;;;;;2.03;0.70;;;21.00;86.00;;;;;;6136094;23;20092;-88
2021/08/08 07:47:01;;;;;;;1.73;0.55;;;21.00;85.20;;;;;;6135133;23;20009;-88
2021/08/08 07:49:27;;;;;;;1.60;0.45;;;21.00;84.30;;;;;;6135198;23;20016;-88
2021/08/08 07:51:52;;;;;;;0.70;0.50;;;20.90;84.30;;;;;;6139098;23;20010;-88
2021/08/08 07:54:47;;;;;;;0.50;0.45;;;20.90;84.60;;;;;;6139847;23;20265;-88
2021/08/08 07:57:30;;;;;;;0.40;0.30;;;20.90;85.60;;;;;;6137320;23;20005;-89
2021/08/08 08:00:22;;;;;;;2.65;0.38;;;20.80;84.60;;;;;;6137070;23;20009;-90
2021/08/08 08:02:53;;;;;;;1.33;0.70;;;20.90;85.50;;;;;;6151140;23;20037;-88
2021/08/08 08:05:25;;;;;;;1.13;0.40;;;20.90;84.10;;;;;;6134698;23;20022;-90
2021/08/08 08:07:50;;;;;;;1.10;0.70;;;20.90;84.20;;;;;;6135004;23;20016;-88
2021/08/08 08:10:16;;;;;;;1.80;0.77;;;20.90;84.20;;;;;;6134980;23;20081;-88
2021/08/08 08:12:41;;;;;;;1.05;0.50;;;21.00;85.10;;;;;;6134967;23;20084;-89
2021/08/08 08:15:07;;;;;;;2.03;0.55;;;21.10;85.30;;;;;;6135972;23;20270;-89
2021/08/08 08:17:33;;;;;;;1.40;0.40;;;21.20;84.70;;;;;;6134908;23;20006;-88
2021/08/08 08:19:58;;;;;;;1.15;0.60;;;21.40;84.30;;;;;;6134950;23;20140;-88
2021/08/08 08:22:30;;;;;;;1.20;0.47;;;21.40;83.30;;;;;;6134679;23;20044;-89
2021/08/08 08:25:14;;;;;;;0.93;0.40;;;21.40;83.90;;;;;;6135427;23;20353;-89
2021/08/08 08:27:41;;;;;;;1.35;0.57;;;21.40;82.40;;;;;;6145377;23;20334;-88
2021/08/08 08:30:31;;;;;;;0.85;0.47;;;21.50;82.10;;;;;;6145906;23;20020;-88
2021/08/08 08:32:56;;;;;;;3.15;0.57;;;21.70;82.30;;;;;;6135239;23;20013;-88
2021/08/08 08:35:22;;;;;;;1.30;0.57;;;21.80;81.10;;;;;;6137061;23;20016;-89
2021/08/08 08:38:08;;;;;;;1.17;0.68;;;21.80;80.80;;;;;;6136376;23;20105;-89
2021/08/08 08:40:40;;;;;;;3.13;0.50;;;21.70;80.20;;;;;;6135149;23;20013;-88
2021/08/08 08:43:09;;;;;;;0.60;0.47;;;21.70;81.30;;;;;;6131717;23;20021;-89
2021/08/08 08:46:03;;;;;;;2.60;0.70;;;21.60;80.80;;;;;;6135125;23;20053;-88
2021/08/08 08:48:50;;;;;;;3.17;0.57;;;21.70;81.50;;;;;;6134982;23;20037;-87
2021/08/08 08:51:37;;;;;;;1.05;0.30;;;21.80;80.70;;;;;;6134156;23;20064;-89
2021/08/08 08:54:12;;;;;;;1.95;0.60;;;22.00;80.10;;;;;;6134908;23;20002;-88
2021/08/08 08:56:40;;;;;;;2.20;0.60;;;22.20;80.10;;;;;;6137650;23;20066;-88
2021/08/08 08:59:16;;;;;;;;;;;;;;;;;;;;;
2021/08/08 09:01:51;;;;;;;1.73;0.52;;;22.60;80.00;;;;;;6160725;23;20033;-90
2021/08/08 09:04:20;;;;;;;0.73;0.40;;;22.70;77.90;;;;;;6134776;23;20005;-86
2021/08/08 09:07:10;;;;;;;1.55;0.40;;;22.90;77.00;;;;;;6135261;23;20006;-89
2021/08/08 09:09:37;;;;;;;2.92;1.10;;;22.90;76.70;;;;;;6119601;23;20005;-88
2021/08/08 09:12:06;;;;;;;1.05;0.35;;;23.00;77.00;;;;;;6162254;23;20033;-89
2021/08/08 09:14:33;;;;;;;1.23;0.45;;;23.10;76.80;;;;;;6136244;23;20411;-90
2021/08/08 09:17:05;;;;;;;0.98;0.40;;;23.10;75.80;;;;;;6135491;23;20006;-89
2021/08/08 09:20:12;;;;;;;1.33;0.50;;;23.20;76.50;;;;;;6134576;23;20408;-91
2021/08/08 09:22:42;;;;;;;1.10;0.60;;;23.30;74.90;;;;;;6134670;23;20072;-89
2021/08/08 09:25:20;;;;;;;0.55;0.40;;;23.20;74.60;;;;;;6134632;23;20020;-90
2021/08/08 09:28:04;;;;;;;2.35;0.50;;;23.20;75.90;;;;;;6135025;23;20001;-88
2021/08/08 09:30:37;;;;;;;0.60;0.30;;;23.10;75.90;;;;;;6134991;23;20001;-87
2021/08/08 09:33:44;;;;;;;1.77;0.50;;;23.20;76.10;;;;;;6135222;23;20353;-90
2021/08/08 09:36:10;;;;;;;0.40;0.30;;;23.20;75.20;;;;;;6134665;23;20025;-88
2021/08/08 09:38:45;;;;;;;0.82;0.50;;;23.20;76.20;;;;;;6135268;23;20013;-88
2021/08/08 09:44:35;;;;;;;;;;;23.20;75.70;;;;;;6015326;23;20356;-90
2021/08/08 09:47:47;;;;;;;2.50;0.70;;;23.20;76.60;;;;;;5992205;23;20540;-89
2021/08/08 09:50:21;;;;;;;1.35;0.70;;;23.10;75.50;;;;;;6133873;23;20405;-90
2021/08/08 09:56:25;;;;;;;0.80;0.40;;;23.20;77.10;;;;;;6162842;23;20016;-90
2021/08/08 09:59:04;;;;;;;4.00;0.90;;;23.40;77.10;;;;;;6151894;23;20009;-90
2021/08/08 10:05:15;;;;;;;1.08;0.60;;;23.40;76.50;;;;;;5991467;23;20067;-90
2021/08/08 10:08:15;;;;;;;1.15;0.40;;;23.40;75.30;;;;;;6014980;23;20008;-89
2021/08/08 10:14:03;;;;;;;1.90;0.68;;;23.00;75.60;;;;;;5991851;23;20308;-89
2021/08/08 10:16:54;;;;;;;0.50;0.50;;;22.90;76.60;;;;;;6130919;23;20012;-90
2021/08/08 10:29:52;;;;;;;0.93;0.70;;;23.30;76.30;;;;;;6073504;23;20026;-90
2021/08/08 10:32:31;;;;;;;1.08;0.52;;;23.30;75.60;;;;;;6074433;23;20305;-90
2021/08/08 10:35:19;;;;;;;1.27;0.60;;;23.30;76.40;;;;;;6173804;23;20021;-89
2021/08/08 10:37:47;;;;;;;0.85;0.50;;;23.50;74.20;;;;;;6126704;23;20374;-87
2021/08/08 10:40:24;;;;;;;1.50;0.80;;;23.70;75.20;;;;;;6160546;23;20006;-88
2021/08/08 10:42:49;;;;;;;2.15;0.60;;;24.00;75.20;;;;;;6160496;23;20013;-88
2021/08/08 10:45:23;;;;;;;1.20;0.60;;;24.30;74.30;;;;;;6136390;23;20056;-89
2021/08/08 10:48:14;;;;;;;0.43;0.30;;;24.50;75.80;;;;;;6136755;23;20009;-89
2021/08/08 10:50:51;;;;;;;2.28;0.40;;;24.80;70.60;;;;;;6135546;23;20029;-90
2021/08/08 10:53:20;;;;;;;1.25;0.50;;;24.80;69.70;;;;;;6136298;23;20044;-89
2021/08/08 10:55:48;;;;;;;0.88;0.50;;;24.80;70.90;;;;;;6136189;23;20005;-90
2021/08/08 10:58:17;;;;;;;0.60;0.47;;;24.70;70.70;;;;;;6136409;23;20021;-89
2021/08/08 11:00:44;;;;;;;0.65;0.35;;;24.50;70.90;;;;;;6135725;23;20005;-90
2021/08/08 11:03:17;;;;;;;1.33;0.50;;;24.30;70.30;;;;;;6136211;23;20025;-89
2021/08/08 11:05:43;;;;;;;2.75;0.50;;;24.10;71.80;;;;;;6135930;23;20009;-91
2021/08/08 11:08:11;;;;;;;1.52;0.57;;;24.10;72.70;;;;;;6137148;23;20006;-90
2021/08/08 11:10:40;;;;;;;2.38;0.60;;;24.10;72.70;;;;;;6151329;23;20012;-88
2021/08/08 11:13:28;;;;;;;0.50;0.35;;;24.20;72.90;;;;;;6137574;23;20005;-89
2021/08/08 11:15:54;;;;;;;1.85;0.98;;;24.30;71.70;;;;;;6136876;23;20084;-89
2021/08/08 11:18:30;;;;;;;1.20;0.57;;;24.30;71.60;;;;;;6135998;23;20080;-89
2021/08/08 11:20:57;;;;;;;1.00;0.65;;;24.40;72.20;;;;;;6136009;23;20011;-89
2021/08/08 11:23:28;;;;;;;1.50;0.77;;;24.40;70.50;;;;;;6141056;23;20079;-87
2021/08/08 11:25:53;;;;;;;1.20;0.60;;;24.50;70.40;;;;;;6160696;23;20326;-87
2021/08/08 11:28:19;;;;;;;2.50;0.98;;;24.50;67.30;;;;;;6134563;23;20029;-89
2021/08/08 11:30:45;;;;;;;1.17;0.50;;;24.60;67.50;;;;;;6135285;23;20248;-90
2021/08/08 11:33:12;;;;;;;0.90;0.50;;;24.60;69.30;;;;;;6160652;23;20032;-88
2021/08/08 11:35:39;;;;;;;0.68;0.43;;;24.70;67.80;;;;;;6160957;23;20005;-89
2021/08/08 11:38:19;;;;;;;1.05;0.47;;;24.70;67.60;;;;;;6160870;23;20005;-88
2021/08/08 11:40:46;;;;;;;1.60;0.68;;;24.70;68.40;;;;;;6135314;23;20024;-89
2021/08/08 11:43:12;;;;;;;1.20;0.40;;;24.70;68.10;;;;;;6162874;23;20020;-88
2021/08/08 11:45:47;;;;;;;1.35;0.60;;;24.70;67.50;;;;;;6150604;23;20101;-90
2021/08/08 11:48:16;;;;;;;0.88;0.50;;;24.80;69.20;;;;;;6136993;23;20009;-88
2021/08/08 11:50:42;;;;;;;1.90;0.50;;;24.90;67.50;;;;;;6135449;23;20012;-88
2021/08/08 11:53:09;;;;;;;1.65;0.40;;;24.90;69.20;;;;;;6135966;23;20246;-89
2021/08/08 11:55:35;;;;;;;8.13;0.52;;;24.80;69.00;;;;;;6135357;23;20219;-89
2021/08/08 11:58:08;;;;;;;1.10;0.63;;;24.60;67.00;;;;;;6135688;23;20010;-88
2021/08/08 12:00:39;;;;;;;2.65;0.40;;;24.50;69.20;;;;;;6134613;23;20024;-87
2021/08/08 12:03:06;;;;;;;2.33;0.50;;;24.50;69.10;;;;;;6134601;23;20006;-88
2021/08/08 12:05:36;;;;;;;1.15;0.50;;;24.50;68.50;;;;;;6160827;23;20008;-88
2021/08/08 12:08:03;;;;;;;1.05;0.60;;;24.50;69.40;;;;;;6135215;23;20353;-88
2021/08/08 12:10:32;;;;;;;1.88;0.93;;;24.60;68.90;;;;;;6135449;23;20263;-88
2021/08/08 12:12:58;;;;;;;0.80;0.50;;;24.70;70.40;;;;;;6135320;23;20005;-89
2021/08/08 12:15:33;;;;;;;2.03;0.65;;;24.80;69.80;;;;;;6159772;23;20044;-87
2021/08/08 12:17:59;;;;;;;1.80;0.60;;;25.00;69.20;;;;;;6160042;23;20001;-88
2021/08/08 12:20:35;;;;;;;1.30;0.40;;;25.30;66.40;;;;;;6149885;23;20119;-88
2021/08/08 12:23:13;;;;;;;1.85;0.77;;;25.50;65.90;;;;;;6140772;23;20602;-89
2021/08/08 12:25:42;;;;;;;0.90;0.50;;;25.70;66.20;;;;;;6135088;23;20301;-91
2021/08/08 12:28:09;;;;;;;0.98;0.40;;;25.90;63.60;;;;;;6160848;23;19998;-88
2021/08/08 12:30:37;;;;;;;0.63;0.40;;;25.90;63.90;;;;;;6136255;23;20464;-91
2021/08/08 12:33:08;;;;;;;0.95;0.50;;;25.90;62.90;;;;;;6136873;23;20001;-90
2021/08/08 12:35:42;;;;;;;1.67;0.43;;;25.70;64.50;;;;;;6146063;23;20009;-90
2021/08/08 12:38:10;;;;;;;1.10;0.57;;;25.60;65.30;;;;;;6138614;23;20036;-90
2021/08/08 12:40:46;;;;;;;2.20;0.65;;;25.60;65.00;;;;;;6135888;23;20009;-90
2021/08/08 12:43:19;;;;;;;2.58;0.50;;;25.60;64.70;;;;;;6135084;23;20009;-89
2021/08/08 12:45:45;;;;;;;1.45;0.50;;;25.70;64.40;;;;;;6136036;23;20501;-91
2021/08/08 12:48:11;;;;;;;1.35;0.50;;;25.80;63.80;;;;;;6136221;23;20013;-91
2021/08/08 12:50:42;;;;;;;0.68;0.43;;;25.80;64.70;;;;;;6135615;23;20001;-90
2021/08/08 12:53:08;;;;;;;1.65;0.60;;;25.80;63.60;;;;;;6135963;23;20238;-88
2021/08/08 12:55:37;;;;;;;0.65;0.45;;;25.70;62.70;;;;;;6150440;23;19997;-90
2021/08/08 12:58:05;;;;;;;0.88;0.50;;;25.80;61.50;;;;;;6162934;23;20013;-89
2021/08/08 13:00:30;;;;;;;1.67;0.73;;;25.90;62.50;;;;;;6135023;23;20024;-89
2021/08/08 13:02:56;;;;;;;1.27;0.50;;;26.00;61.70;;;;;;6138281;23;20302;-90
2021/08/08 13:05:22;;;;;;;1.05;0.50;;;26.20;61.00;;;;;;6135154;23;20017;-89
2021/08/08 13:07:49;;;;;;;3.10;0.90;;;26.20;61.10;;;;;;6160848;23;20008;-89
2021/08/08 13:10:15;;;;;;;0.75;0.50;;;26.20;60.50;;;;;;6134745;23;20356;-89
2021/08/08 13:12:42;;;;;;;0.70;0.40;;;26.20;62.20;;;;;;6133959;23;20009;-89
2021/08/08 13:15:09;;;;;;;3.20;0.43;;;26.30;60.40;;;;;;6134452;23;20010;-88
2021/08/08 13:17:37;;;;;;;2.08;0.90;;;26.30;60.50;;;;;;6134098;23;20006;-88
2021/08/08 13:20:04;;;;;;;1.13;0.50;;;26.40;59.40;;;;;;6160363;23;20068;-90
2021/08/08 13:22:29;;;;;;;2.42;0.50;;;26.40;60.10;;;;;;6135398;23;20016;-89
2021/08/08 13:24:55;;;;;;;2.15;0.65;;;26.30;59.40;;;;;;6136591;23;20002;-91
2021/08/08 13:27:21;;;;;;;1.85;0.30;;;26.20;58.70;;;;;;6136147;23;20358;-90
2021/08/08 13:39:57;;;;;;;2.17;0.73;;;25.80;60.40;;;;;;6160878;23;20005;-89
2021/08/08 13:42:44;;;;;;;1.92;0.73;;;25.80;58.50;;;;;;6135850;23;20018;-92
2021/08/08 13:49:31;;;;;;;0.65;0.40;;;25.70;61.10;;;;;;5970346;23;20027;-91
2021/08/08 13:52:08;;;;;;;1.75;0.55;;;25.60;61.90;;;;;;5990807;23;20007;-92
2021/08/08 13:55:30;;;;;;;;;;;;;;;;;;;;;
2021/08/08 13:58:22;;;;;;;2.00;0.50;;;25.40;60.40;;;;;;6013390;23;20039;-89
2021/08/08 14:01:43;;;;;;;2.35;0.40;;;25.40;62.10;;;;;;5990482;23;20035;-90
2021/08/08 14:04:12;;;;;;;1.00;0.57;;;25.30;61.00;;;;;;5934628;24;20012;-90
2021/08/08 14:07:12;;;;;;;1.00;0.50;;;25.20;63.00;;;;;;5984286;24;20027;-91
2021/08/08 14:09:53;;;;;;;3.65;0.60;;;25.30;60.40;;;;;;5985140;24;20023;-90
2021/08/08 14:16:25;;;;;;;1.25;0.68;;;25.40;60.00;;;;;;6007777;23;20012;-90
2021/08/08 14:19:24;;;;;;;1.48;0.60;;;25.50;60.10;;;;;;5933995;24;20032;-90
2021/08/08 14:22:34;;;;;;;1.33;0.50;;;25.60;59.40;;;;;;5939213;24;20094;-90
2021/08/08 14:25:20;;;;;;;1.05;0.40;;;25.70;61.50;;;;;;5931366;24;20098;-89
2021/08/08 14:27:53;;;;;;;1.50;0.45;;;25.70;63.10;;;;;;5906612;24;20009;-88
2021/08/08 14:30:21;;;;;;;1.08;0.60;;;25.60;61.60;;;;;;5931726;24;20119;-92
2021/08/08 14:32:59;;;;;;;1.88;0.50;;;25.50;63.00;;;;;;5974760;23;20017;-91
2021/08/08 14:35:30;;;;;;;2.42;0.98;;;25.40;62.80;;;;;;6137489;23;20088;-95
2021/08/08 14:37:55;;;;;;;3.60;0.63;;;25.40;65.00;;;;;;6137058;23;20250;-87
2021/08/08 14:40:24;;;;;;;4.30;0.55;;;25.30;63.90;;;;;;6160971;23;20322;-91
2021/08/08 14:42:49;;;;;;;2.05;0.93;;;25.20;63.70;;;;;;6137221;23;20246;-92
2021/08/08 14:45:15;;;;;;;4.40;0.63;;;25.20;64.00;;;;;;6135426;23;20001;-86
2021/08/08 14:47:40;;;;;;;2.08;0.75;;;25.30;65.60;;;;;;6134045;23;20005;-87
2021/08/08 14:50:07;;;;;;;2.72;0.60;;;25.30;64.80;;;;;;6137218;23;20012;-90
2021/08/08 14:52:33;;;;;;;4.13;0.50;;;25.40;64.80;;;;;;6134448;23;20005;-88
2021/08/08 14:55:02;;;;;;;0.73;0.50;;;25.40;65.60;;;;;;6135304;23;20009;-89
2021/08/08 14:57:34;;;;;;;4.50;0.77;;;25.40;64.90;;;;;;6136761;23;20013;-90
2021/08/08 14:59:59;;;;;;;2.45;0.57;;;25.40;61.10;;;;;;6162573;23;20009;-88
2021/08/08 15:02:37;;;;;;;1.48;0.55;;;25.30;62.50;;;;;;6163783;23;20012;-88
2021/08/08 15:05:03;;;;;;;0.95;0.50;;;25.30;62.80;;;;;;6160820;23;20282;-84
2021/08/08 15:07:29;;;;;;;0.93;0.45;;;25.30;62.40;;;;;;6134317;23;20118;-87
2021/08/08 15:09:54;;;;;;;3.45;0.70;;;25.30;64.50;;;;;;6159973;23;20014;-87
2021/08/08 15:12:20;;;;;;;3.40;1.50;;;25.30;64.50;;;;;;6134033;23;20040;-86
2021/08/08 15:14:45;;;;;;;2.33;0.68;;;25.30;60.30;;;;;;6159302;23;20017;-90
2021/08/08 15:17:11;;;;;;;1.35;0.40;;;25.30;60.50;;;;;;6161347;23;20011;-89
2021/08/08 15:19:37;;;;;;;1.75;0.77;;;25.20;60.00;;;;;;6136615;23;20020;-91
2021/08/08 15:22:03;;;;;;;1.33;0.70;;;25.10;60.80;;;;;;6135881;23;20009;-88
2021/08/08 15:24:28;;;;;;;1.90;1.17;;;24.90;61.20;;;;;;6137879;23;20364;-91
2021/08/08 15:26:55;;;;;;;2.13;0.55;;;24.80;61.20;;;;;;6136042;23;20093;-89
2021/08/08 15:29:20;;;;;;;3.22;0.60;;;24.80;61.20;;;;;;6136512;23;20036;-89
2021/08/08 15:31:46;;;;;;;1.75;0.70;;;24.70;60.80;;;;;;6148482;23;20009;-91
2021/08/08 15:34:11;;;;;;;3.05;0.60;;;24.70;61.00;;;;;;6145146;23;20057;-91
2021/08/08 15:36:37;;;;;;;2.05;0.55;;;24.70;63.00;;;;;;6136844;23;20005;-90
2021/08/08 15:39:04;;;;;;;2.20;0.65;;;24.70;63.70;;;;;;6136303;23;20005;-89
2021/08/08 15:41:30;;;;;;;4.45;0.55;;;24.70;63.50;;;;;;6136303;23;20010;-89
2021/08/08 15:43:55;;;;;;;1.20;0.52;;;24.80;63.00;;;;;;6135802;23;20011;-89
2021/08/08 15:46:21;;;;;;;1.08;0.50;;;24.90;60.90;;;;;;6135497;23;20017;-90
2021/08/08 15:48:47;;;;;;;4.65;0.65;;;25.00;62.60;;;;;;6136946;23;20365;-89
2021/08/08 15:51:12;;;;;;;2.33;0.60;;;25.10;62.00;;;;;;6136037;23;20002;-88
2021/08/08 15:53:38;;;;;;;1.08;0.50;;;24.90;61.70;;;;;;6136007;23;20339;-89
2021/08/08 15:56:04;;;;;;;1.70;0.60;;;24.90;63.00;;;;;;6135853;23;20013;-88
2021/08/08 15:58:29;;;;;;;3.80;0.80;;;24.90;61.80;;;;;;6161333;23;20253;-90
2021/08/08 16:00:55;;;;;;;3.75;1.15;;;24.90;62.20;;;;;;6135800;23;20385;-89
2021/08/08 16:03:20;;;;;;;1.30;0.50;;;24.80;64.10;;;;;;6161272;23;20037;-89
2021/08/08 16:05:45;;;;;;;1.25;0.70;;;24.80;64.50;;;;;;6136430;23;20002;-88
2021/08/08 16:08:11;;;;;;;4.63;0.63;;;24.70;63.50;;;;;;6156795;23;20078;-91
2021/08/08 16:10:36;;;;;;;2.17;0.95;;;24.60;64.60;;;;;;6137583;23;20017;-89
2021/08/08 16:13:02;;;;;;;3.15;0.93;;;24.70;64.30;;;;;;6146197;23;19989;-89
2021/08/08 16:15:28;;;;;;;3.58;0.95;;;24.60;63.60;;;;;;6137970;23;20012;-88
2021/08/08 16:17:53;;;;;;;2.55;0.98;;;24.50;65.00;;;;;;6136347;23;20044;-89
2021/08/08 16:20:19;;;;;;;2.65;1.00;;;24.50;64.40;;;;;;6160779;23;19997;-89
2021/08/08 16:22:45;;;;;;;1.10;0.90;;;24.50;64.30;;;;;;6160588;23;20016;-91
2021/08/08 16:25:12;;;;;;;5.63;0.60;;;24.50;64.70;;;;;;6135942;23;20001;-89
2021/08/08 16:27:37;;;;;;;1.27;0.60;;;24.30;65.30;;;;;;6134538;23;20230;-89
2021/08/08 16:30:07;;;;;;;2.38;1.33;;;24.30;65.90;;;;;;6135384;23;19998;-90
2021/08/08 16:32:33;;;;;;;2.00;0.70;;;24.30;65.80;;;;;;6160986;23;20005;-85
2021/08/08 16:34:59;;;;;;;0.98;0.60;;;24.40;65.10;;;;;;6166340;23;20006;-87
2021/08/08 16:37:24;;;;;;;4.72;0.60;;;24.40;64.10;;;;;;6141984;23;20024;-87
2021/08/08 16:39:50;;;;;;;1.67;0.93;;;24.40;63.40;;;;;;6159264;23;20389;-87
2021/08/08 16:42:15;;;;;;;3.25;0.50;;;24.30;63.40;;;;;;6134421;23;20009;-87
2021/08/08 16:44:40;;;;;;;1.92;0.65;;;24.20;64.50;;;;;;6138084;23;20318;-88
2021/08/08 16:47:06;;;;;;;2.25;1.13;;;24.10;64.00;;;;;;6164739;23;20096;-88
2021/08/08 16:49:32;;;;;;;2.28;0.88;;;24.00;64.00;;;;;;6163335;23;20417;-87
2021/08/08 16:51:58;;;;;;;3.00;0.82;;;24.00;64.70;;;;;;6136390;23;20044;-88
2021/08/08 16:54:24;;;;;;;2.13;1.25;;;24.00;64.70;;;;;;6135691;23;20013;-88
2021/08/08 16:56:50;;;;;;;1.90;0.57;;;24.00;64.50;;;;;;6135367;23;20333;-89
2021/08/08 16:59:15;;;;;;;1.17;0.60;;;24.00;64.60;;;;;;6133337;23;20072;-88
2021/08/08 17:01:41;;;;;;;1.75;0.60;;;23.90;65.70;;;;;;6133461;23;20014;-90
2021/08/08 17:04:06;;;;;;;2.85;0.85;;;23.90;64.40;;;;;;6158376;23;20334;-89
2021/08/08 17:06:32;;;;;;;2.22;0.75;;;23.80;64.20;;;;;;6133202;23;20006;-87
2021/08/08 17:08:57;;;;;;;2.15;0.90;;;23.80;64.00;;;;;;6137190;23;20044;-87
2021/08/08 17:11:23;;;;;;;1.67;0.60;;;23.70;64.50;;;;;;6146927;23;20076;-88
2021/08/08 17:13:49;;;;;;;1.50;0.60;;;23.70;63.20;;;;;;6134118;23;20017;-87
2021/08/08 17:16:15;;;;;;;0.88;0.50;;;23.70;63.90;;;;;;6133981;23;20056;-87
2021/08/08 17:18:41;;;;;;;1.38;0.80;;;23.60;62.70;;;;;;6159329;23;20081;-87
2021/08/08 17:21:08;;;;;;;1.95;0.55;;;23.60;63.30;;;;;;6133460;23;20301;-87
2021/08/08 17:23:34;;;;;;;7.70;0.60;;;23.50;64.70;;;;;;6158154;23;20030;-88
2021/08/08 17:25:59;;;;;;;1.67;1.05;;;23.50;64.40;;;;;;6162552;23;20013;-87
2021/08/08 17:28:25;;;;;;;1.98;0.70;;;23.40;64.50;;;;;;6132883;23;20001;-87
2021/08/08 17:30:50;;;;;;;1.50;0.60;;;23.40;62.80;;;;;;6158460;23;20006;-87
2021/08/08 17:33:16;;;;;;;1.10;0.52;;;23.20;63.40;;;;;;6132828;23;20044;-87
2021/08/08 17:35:42;;;;;;;1.10;0.70;;;23.20;63.00;;;;;;6132959;23;20361;-87
2021/08/08 17:38:07;;;;;;;1.60;0.40;;;23.20;63.50;;;;;;6133034;23;20013;-87
2021/08/08 17:40:33;;;;;;;2.55;0.70;;;23.20;63.70;;;;;;6132904;23;20044;-89
2021/08/08 17:42:58;;;;;;;1.45;0.65;;;23.10;63.80;;;;;;6134041;23;20001;-88
2021/08/08 17:45:24;;;;;;;2.40;0.50;;;23.10;64.20;;;;;;6133271;23;20015;-88
2021/08/08 17:47:49;;;;;;;1.88;0.80;;;23.10;64.50;;;;;;6133330;23;20298;-89
2021/08/08 17:50:15;;;;;;;1.48;0.63;;;23.10;64.70;;;;;;6134043;23;20029;-89
2021/08/08 17:52:41;;;;;;;0.68;0.40;;;23.00;65.30;;;;;;6135495;23;20338;-89
2021/08/08 17:55:08;;;;;;;1.92;0.40;;;23.00;65.40;;;;;;6132917;23;20016;-89
2021/08/08 17:57:33;;;;;;;2.70;0.80;;;22.80;66.20;;;;;;6145108;23;20020;-89
2021/08/08 17:59:59;;;;;;;0.95;0.45;;;22.70;65.90;;;;;;6143048;23;20009;-89
2021/08/08 18:02:25;;;;;;;1.70;0.77;;;22.60;66.10;;;;;;6136118;23;20072;-90
2021/08/08 18:04:50;;;;;;;1.30;0.80;;;22.50;65.90;;;;;;6135625;23;20005;-91
2021/08/08 18:07:16;;;;;;;2.05;0.60;;;22.50;66.60;;;;;;6161731;23;20032;-89
2021/08/08 18:09:41;;;;;;;4.00;0.68;;;22.40;66.30;;;;;;6160308;23;20005;-89
2021/08/08 18:12:07;;;;;;;1.10;0.60;;;22.20;66.00;;;;;;6136150;23;20084;-90
2021/08/08 18:14:32;;;;;;;2.58;0.77;;;22.30;67.00;;;;;;6161057;23;20441;-86
2021/08/08 18:16:59;;;;;;;1.92;0.68;;;22.20;67.10;;;;;;6135046;23;20001;-88
2021/08/08 18:19:24;;;;;;;7.53;0.70;;;22.00;68.40;;;;;;6135327;23;20017;-89
2021/08/08 18:21:50;;;;;;;2.55;0.50;;;21.80;69.00;;;;;;6135309;23;20211;-87
2021/08/08 18:24:15;;;;;;;3.28;0.60;;;21.50;70.20;;;;;;6135324;23;19997;-88
2021/08/08 18:26:41;;;;;;;1.25;0.63;;;21.10;71.60;;;;;;6161101;23;20013;-86
2021/08/08 18:29:06;;;;;;;0.45;0.40;;;20.70;72.00;;;;;;6135200;23;20001;-87
2021/08/08 18:31:32;;;;;;;1.20;0.50;;;20.50;72.50;;;;;;6135254;23;20016;-88
2021/08/08 18:33:57;;;;;;;1.75;0.40;;;20.20;74.20;;;;;;6135424;23;20017;-87
2021/08/08 18:36:24;;;;;;;1.33;0.47;;;19.90;74.30;;;;;;6135378;23;20005;-88
2021/08/08 18:38:50;;;;;;;1.55;0.60;;;19.70;76.00;;;;;;6138628;23;20001;-89
2021/08/08 18:41:15;;;;;;;1.40;0.50;;;19.50;75.90;;;;;;6139552;23;19997;-87
2021/08/08 18:43:41;;;;;;;3.00;0.60;;;19.20;78.20;;;;;;6161777;23;20009;-87
2021/08/08 18:46:06;;;;;;;2.03;0.82;;;19.00;78.40;;;;;;6135487;23;20036;-85
2021/08/08 18:48:32;;;;;;;1.77;0.50;;;18.80;79.80;;;;;;6135975;23;20071;-89
2021/08/08 18:50:59;;;;;;;4.03;0.65;;;18.60;80.20;;;;;;6160498;23;20233;-87
2021/08/08 18:53:25;;;;;;;2.42;0.65;;;18.50;81.60;;;;;;6134834;23;20099;-88
2021/08/08 18:55:51;;;;;;;1.83;0.63;;;18.50;81.30;;;;;;6160981;23;20080;-87